sensor_id;sensor_type;location;lat;lon;timestamp;pressure;altitude;pressure_sealevel;temperature;humidity
31096;BME280;17749;51.962;8.560;2023-08-12T05:00:36;100172.97;;;19.08;100.00
31096;BME280;17749;51.962;8.560;2023-08-12T05:03:03;100165.84;;;19.07;100.00
31096;BME280;17749;51.962;8.560;2023-08-12T05:05:31;100163.91;;;19.09;100.00
31096;BME280;17749;51.962;8.560;2023-08-12T05:07:58;100167.59;;;19.08;100.00
31096;BME280;17749;51.962;8.560;2023-08-12T05:10:26;100163.03;;;19.09;100.00
31096;BME280;17749;51.962;8.560;2023-08-12T05:12:53;100161.19;;;19.09;100.00
31096;BME280;17749;51.962;8.560;2023-08-12T05:15:21;100161.44;;;19.06;100.00
31096;BME280;17749;51.962;8.560;2023-08-12T05:17:49;100159.72;;;19.05;100.00
31096;BME280;17749;51.962;8.560;2023-08-12T05:20:19;100165.22;;;19.03;100.00
31096;BME280;17749;51.962;8.560;2023-08-12T05:22:46;100158.72;;;19.06;100.00
31096;BME280;17749;51.962;8.560;2023-08-12T05:25:13;100155.69;;;19.11;100.00
31096;BME280;17749;51.962;8.560;2023-08-12T05:27:40;100152.66;;;19.15;100.00
31096;BME280;17749;51.962;8.560;2023-08-12T05:30:08;100152.00;;;19.12;100.00
31096;BME280;17749;51.962;8.560;2023-08-12T05:32:35;100151.41;;;19.08;100.00
31096;BME280;17749;51.962;8.560;2023-08-12T05:35:02;100142.78;;;19.03;100.00
31096;BME280;17749;51.962;8.560;2023-08-12T05:37:29;100144.50;;;19.04;100.00
31096;BME280;17749;51.962;8.560;2023-08-12T05:39:56;100142.53;;;19.06;100.00
31096;BME280;17749;51.962;8.560;2023-08-12T05:42:23;100151.25;;;19.10;100.00
31096;BME280;17749;51.962;8.560;2023-08-12T05:44:50;100139.16;;;19.15;100.00
31096;BME280;17749;51.962;8.560;2023-08-12T05:47:17;100137.19;;;19.17;100.00
31096;BME280;17749;51.962;8.560;2023-08-12T05:49:44;100135.84;;;19.23;100.00
31096;BME280;17749;51.962;8.560;2023-08-12T05:52:11;100134.91;;;19.24;100.00
31096;BME280;17749;51.962;8.560;2023-08-12T05:54:39;100137.38;;;19.27;100.00
31096;BME280;17749;51.962;8.560;2023-08-12T05:57:06;100136.16;;;19.31;100.00
31096;BME280;17749;51.962;8.560;2023-08-12T05:59:33;100131.16;;;19.38;100.00
31096;BME280;17749;51.962;8.560;2023-08-12T06:02:00;100125.75;;;19.38;100.00
31096;BME280;17749;51.962;8.560;2023-08-12T06:04:27;100125.75;;;19.38;100.00
31096;BME280;17749;51.962;8.560;2023-08-12T06:06:53;100138.28;;;19.39;100.00
31096;BME280;17749;51.962;8.560;2023-08-12T06:09:21;100136.31;;;19.41;100.00
31096;BME280;17749;51.962;8.560;2023-08-12T06:11:48;100125.25;;;19.44;100.00
31096;BME280;17749;51.962;8.560;2023-08-12T06:14:15;100124.06;;;19.48;100.00
31096;BME280;17749;51.962;8.560;2023-08-12T06:16:42;100118.31;;;19.53;100.00
31096;BME280;17749;51.962;8.560;2023-08-12T06:19:09;100126.06;;;19.57;100.00
31096;BME280;17749;51.962;8.560;2023-08-12T06:21:39;100118.22;;;19.65;100.00
31096;BME280;17749;51.962;8.560;2023-08-12T06:24:06;100116.28;;;19.67;100.00
31096;BME280;17749;51.962;8.560;2023-08-12T06:26:33;100112.88;;;19.77;100.00
31096;BME280;17749;51.962;8.560;2023-08-12T06:29:00;100102.81;;;19.79;100.00
31096;BME280;17749;51.962;8.560;2023-08-12T06:31:31;100096.16;;;19.83;100.00
31096;BME280;17749;51.962;8.560;2023-08-12T06:33:59;100085.59;;;19.91;100.00
31096;BME280;17749;51.962;8.560;2023-08-12T06:36:26;100082.56;;;20.07;100.00
31096;BME280;17749;51.962;8.560;2023-08-12T06:38:53;100080.19;;;20.25;100.00
31096;BME280;17749;51.962;8.560;2023-08-12T06:41:20;100074.38;;;20.74;100.00
31096;BME280;17749;51.962;8.560;2023-08-12T06:43:47;100063.81;;;21.04;100.00
31096;BME280;17749;51.962;8.560;2023-08-12T06:46:14;100065.00;;;21.11;100.00
31096;BME280;17749;51.962;8.560;2023-08-12T06:48:42;100066.00;;;21.10;100.00
31096;BME280;17749;51.962;8.560;2023-08-12T06:51:09;100071.91;;;21.15;100.00
31096;BME280;17749;51.962;8.560;2023-08-12T06:53:39;100065.72;;;21.45;100.00
31096;BME280;17749;51.962;8.560;2023-08-12T06:56:06;100074.56;;;21.68;100.00
31096;BME280;17749;51.962;8.560;2023-08-12T06:58:33;100059.16;;;21.69;100.00
31096;BME280;17749;51.962;8.560;2023-08-12T07:01:00;100057.59;;;21.66;100.00
31096;BME280;17749;51.962;8.560;2023-08-12T07:03:27;100062.59;;;21.71;100.00
31096;BME280;17749;51.962;8.560;2023-08-12T07:05:54;100072.78;;;21.57;100.00
31096;BME280;17749;51.962;8.560;2023-08-12T07:08:21;100064.00;;;21.44;100.00
31096;BME280;17749;51.962;8.560;2023-08-12T07:10:48;100068.59;;;21.32;100.00
31096;BME280;17749;51.962;8.560;2023-08-12T07:13:15;100075.66;;;21.23;100.00
31096;BME280;17749;51.962;8.560;2023-08-12T07:15:43;100085.94;;;21.09;100.00
31096;BME280;17749;51.962;8.560;2023-08-12T07:18:10;100091.22;;;21.10;100.00
31096;BME280;17749;51.962;8.560;2023-08-12T07:20:37;100085.50;;;20.92;100.00
31096;BME280;17749;51.962;8.560;2023-08-12T07:23:04;100090.81;;;20.94;100.00
31096;BME280;17749;51.962;8.560;2023-08-12T07:25:31;100094.59;;;21.02;100.00
31096;BME280;17749;51.962;8.560;2023-08-12T07:27:58;100095.91;;;21.08;100.00
31096;BME280;17749;51.962;8.560;2023-08-12T07:30:25;100092.88;;;21.01;100.00
31096;BME280;17749;51.962;8.560;2023-08-12T07:32:52;100092.63;;;21.05;100.00
31096;BME280;17749;51.962;8.560;2023-08-12T07:35:20;100099.56;;;21.18;100.00
31096;BME280;17749;51.962;8.560;2023-08-12T07:37:47;100088.47;;;21.21;100.00
31096;BME280;17749;51.962;8.560;2023-08-12T07:40:14;100093.88;;;21.21;100.00
31096;BME280;17749;51.962;8.560;2023-08-12T07:42:41;100089.19;;;21.23;100.00
31096;BME280;17749;51.962;8.560;2023-08-12T07:45:08;100080.22;;;21.23;100.00
31096;BME280;17749;51.962;8.560;2023-08-12T07:47:35;100082.47;;;21.18;100.00
31096;BME280;17749;51.962;8.560;2023-08-12T07:50:06;100080.97;;;21.25;100.00
31096;BME280;17749;51.962;8.560;2023-08-12T07:52:33;100075.81;;;21.43;100.00
31096;BME280;17749;51.962;8.560;2023-08-12T07:55:01;100081.13;;;21.44;100.00
31096;BME280;17749;51.962;8.560;2023-08-12T07:57:28;100080.38;;;21.42;100.00
31096;BME280;17749;51.962;8.560;2023-08-12T07:59:55;100072.69;;;21.38;100.00
31096;BME280;17749;51.962;8.560;2023-08-12T08:02:22;100070.59;;;21.30;100.00
31096;BME280;17749;51.962;8.560;2023-08-12T08:04:49;100075.75;;;21.33;100.00
31096;BME280;17749;51.962;8.560;2023-08-12T08:07:16;100061.84;;;21.38;100.00
31096;BME280;17749;51.962;8.560;2023-08-12T08:09:44;100063.56;;;21.39;100.00
31096;BME280;17749;51.962;8.560;2023-08-12T08:12:11;100068.59;;;21.32;100.00
31096;BME280;17749;51.962;8.560;2023-08-12T08:14:39;100064.94;;;21.22;100.00
31096;BME280;17749;51.962;8.560;2023-08-12T08:17:06;100063.97;;;21.23;100.00
31096;BME280;17749;51.962;8.560;2023-08-12T08:19:33;100057.44;;;21.26;100.00
31096;BME280;17749;51.962;8.560;2023-08-12T08:22:00;100047.47;;;21.26;100.00
31096;BME280;17749;51.962;8.560;2023-08-12T08:24:27;100037.31;;;21.39;100.00
31096;BME280;17749;51.962;8.560;2023-08-12T08:26:54;100032.38;;;21.44;100.00
31096;BME280;17749;51.962;8.560;2023-08-12T08:29:21;100034.78;;;21.48;100.00
31096;BME280;17749;51.962;8.560;2023-08-12T08:31:48;100037.03;;;21.42;100.00
31096;BME280;17749;51.962;8.560;2023-08-12T08:34:15;100036.78;;;21.45;100.00
31096;BME280;17749;51.962;8.560;2023-08-12T08:36:42;100024.56;;;21.51;100.00
31096;BME280;17749;51.962;8.560;2023-08-12T08:39:09;100033.59;;;21.40;100.00
31096;BME280;17749;51.962;8.560;2023-08-12T08:41:39;100035.63;;;21.38;100.00
31096;BME280;17749;51.962;8.560;2023-08-12T08:44:08;100033.84;;;21.37;100.00
31096;BME280;17749;51.962;8.560;2023-08-12T08:46:35;100041.28;;;21.35;100.00
31096;BME280;17749;51.962;8.560;2023-08-12T08:49:04;100034.38;;;21.31;100.00
31096;BME280;17749;51.962;8.560;2023-08-12T08:51:31;100025.25;;;21.32;100.00
31096;BME280;17749;51.962;8.560;2023-08-12T08:53:59;100029.97;;;21.30;100.00
31096;BME280;17749;51.962;8.560;2023-08-12T08:56:31;100034.78;;;21.27;100.00
31096;BME280;17749;51.962;8.560;2023-08-12T08:59:01;100046.00;;;21.22;100.00
31096;BME280;17749;51.962;8.560;2023-08-12T09:01:28;100045.75;;;21.25;100.00
31096;BME280;17749;51.962;8.560;2023-08-12T09:03:57;100061.59;;;21.30;100.00
31096;BME280;17749;51.962;8.560;2023-08-12T09:06:25;100055.78;;;21.34;100.00
31096;BME280;17749;51.962;8.560;2023-08-12T09:08:52;100060.69;;;21.40;100.00
31096;BME280;17749;51.962;8.560;2023-08-12T09:11:20;100055.88;;;21.44;100.00
31096;BME280;17749;51.962;8.560;2023-08-12T09:13:48;100055.22;;;21.52;100.00
31096;BME280;17749;51.962;8.560;2023-08-12T09:16:15;100052.59;;;21.61;100.00
31096;BME280;17749;51.962;8.560;2023-08-12T09:18:43;100041.78;;;21.71;100.00
31096;BME280;17749;51.962;8.560;2023-08-12T09:21:11;100039.31;;;21.89;100.00
31096;BME280;17749;51.962;8.560;2023-08-12T09:23:39;100029.41;;;22.09;100.00
31096;BME280;17749;51.962;8.560;2023-08-12T09:26:13;100028.66;;;22.38;100.00
31096;BME280;17749;51.962;8.560;2023-08-12T09:28:42;100035.72;;;22.69;100.00
31096;BME280;17749;51.962;8.560;2023-08-12T09:31:29;100015.28;;;22.94;100.00
31096;BME280;17749;51.962;8.560;2023-08-12T09:34:03;100018.28;;;23.40;100.00
31096;BME280;17749;51.962;8.560;2023-08-12T09:36:31;100006.09;;;23.54;100.00
31096;BME280;17749;51.962;8.560;2023-08-12T09:38:58;100000.31;;;23.67;100.00
31096;BME280;17749;51.962;8.560;2023-08-12T09:41:28;99990.63;;;23.74;100.00
31096;BME280;17749;51.962;8.560;2023-08-12T09:43:56;99993.69;;;23.89;100.00
31096;BME280;17749;51.962;8.560;2023-08-12T09:46:26;99988.09;;;24.18;100.00
31096;BME280;17749;51.962;8.560;2023-08-12T09:48:53;99980.34;;;24.51;100.00
31096;BME280;17749;51.962;8.560;2023-08-12T09:51:20;99982.44;;;24.57;100.00
31096;BME280;17749;51.962;8.560;2023-08-12T09:53:50;99980.34;;;24.68;100.00
31096;BME280;17749;51.962;8.560;2023-08-12T09:56:19;99973.56;;;24.55;100.00
31096;BME280;17749;51.962;8.560;2023-08-12T09:58:49;99977.09;;;24.37;100.00
31096;BME280;17749;51.962;8.560;2023-08-12T10:01:20;99986.06;;;24.20;100.00
31096;BME280;17749;51.962;8.560;2023-08-12T10:03:51;99974.19;;;24.21;100.00
31096;BME280;17749;51.962;8.560;2023-08-12T10:06:18;99991.59;;;24.28;100.00
31096;BME280;17749;51.962;8.560;2023-08-12T10:08:46;99986.06;;;24.20;100.00
31096;BME280;17749;51.962;8.560;2023-08-12T10:11:14;99986.03;;;24.30;100.00
31096;BME280;17749;51.962;8.560;2023-08-12T10:13:42;99976.66;;;24.60;100.00
31096;BME280;17749;51.962;8.560;2023-08-12T10:16:10;99973.34;;;24.84;100.00
31096;BME280;17749;51.962;8.560;2023-08-12T10:18:38;99971.28;;;24.68;100.00
31096;BME280;17749;51.962;8.560;2023-08-12T10:21:09;99979.63;;;24.48;100.00
31096;BME280;17749;51.962;8.560;2023-08-12T10:23:37;99972.69;;;24.54;100.00
31096;BME280;17749;51.962;8.560;2023-08-12T10:26:08;99975.59;;;24.53;100.00
31096;BME280;17749;51.962;8.560;2023-08-12T10:28:35;99981.31;;;24.49;100.00
31096;BME280;17749;51.962;8.560;2023-08-12T10:31:04;99985.25;;;24.37;100.00
31096;BME280;17749;51.962;8.560;2023-08-12T10:33:37;99969.13;;;24.26;100.00
31096;BME280;17749;51.962;8.560;2023-08-12T10:36:05;99978.53;;;23.86;100.00
31096;BME280;17749;51.962;8.560;2023-08-12T10:38:33;99979.75;;;23.74;100.00
31096;BME280;17749;51.962;8.560;2023-08-12T10:46:28;99974.41;;;23.35;100.00
31096;BME280;17749;51.962;8.560;2023-08-12T10:51:46;99974.28;;;23.27;100.00
31096;BME280;17749;51.962;8.560;2023-08-12T10:54:15;99976.22;;;23.44;100.00
31096;BME280;17749;51.962;8.560;2023-08-12T11:04:48;99972.25;;;23.76;100.00
31096;BME280;17749;51.962;8.560;2023-08-12T11:07:17;99964.66;;;24.07;100.00
31096;BME280;17749;51.962;8.560;2023-08-12T11:09:45;99954.59;;;24.17;100.00
31096;BME280;17749;51.962;8.560;2023-08-12T11:12:17;99949.88;;;24.37;100.00
31096;BME280;17749;51.962;8.560;2023-08-12T11:15:09;99954.59;;;24.63;100.00
31096;BME280;17749;51.962;8.560;2023-08-12T11:17:41;99939.16;;;24.89;100.00
31096;BME280;17749;51.962;8.560;2023-08-12T11:20:11;99938.66;;;25.12;100.00
31096;BME280;17749;51.962;8.560;2023-08-12T11:22:40;99940.47;;;25.03;100.00
31096;BME280;17749;51.962;8.560;2023-08-12T11:25:09;99947.47;;;25.06;100.00
31096;BME280;17749;51.962;8.560;2023-08-12T11:27:37;99942.84;;;24.62;100.00
31096;BME280;17749;51.962;8.560;2023-08-12T11:30:05;99949.03;;;24.37;100.00
31096;BME280;17749;51.962;8.560;2023-08-12T11:32:32;99955.91;;;24.31;100.00
31096;BME280;17749;51.962;8.560;2023-08-12T11:34:59;99950.41;;;24.23;100.00
31096;BME280;17749;51.962;8.560;2023-08-12T11:37:26;99960.19;;;24.16;100.00
31096;BME280;17749;51.962;8.560;2023-08-12T11:39:54;99952.56;;;24.19;100.00
31096;BME280;17749;51.962;8.560;2023-08-12T11:42:21;99951.06;;;24.07;100.00
31096;BME280;17749;51.962;8.560;2023-08-12T11:44:48;99944.47;;;24.10;100.00
31096;BME280;17749;51.962;8.560;2023-08-12T11:47:15;99933.19;;;24.04;100.00
31096;BME280;17749;51.962;8.560;2023-08-12T11:49:42;99932.34;;;24.04;100.00
31096;BME280;17749;51.962;8.560;2023-08-12T11:52:10;99941.03;;;23.90;100.00
31096;BME280;17749;51.962;8.560;2023-08-12T11:54:39;99933.75;;;24.08;100.00
31096;BME280;17749;51.962;8.560;2023-08-12T11:57:06;99922.88;;;24.26;100.00
31096;BME280;17749;51.962;8.560;2023-08-12T11:59:33;99930.13;;;24.35;100.00
31096;BME280;17749;51.962;8.560;2023-08-12T12:02:02;99931.34;;;24.23;100.00
31096;BME280;17749;51.962;8.560;2023-08-12T12:04:32;99938.19;;;24.09;100.00
31096;BME280;17749;51.962;8.560;2023-08-12T12:06:59;99934.53;;;24.00;100.00
31096;BME280;17749;51.962;8.560;2023-08-12T12:09:28;99923.81;;;23.89;100.00
31096;BME280;17749;51.962;8.560;2023-08-12T12:11:56;99931.31;;;23.87;100.00
31096;BME280;17749;51.962;8.560;2023-08-12T12:14:24;99925.25;;;23.93;100.00
31096;BME280;17749;51.962;8.560;2023-08-12T12:16:51;99922.09;;;23.98;100.00
31096;BME280;17749;51.962;8.560;2023-08-12T12:19:23;99920.00;;;24.10;100.00
31096;BME280;17749;51.962;8.560;2023-08-12T12:21:52;99922.31;;;24.04;100.00
31096;BME280;17749;51.962;8.560;2023-08-12T12:24:19;99919.28;;;23.90;100.00
31096;BME280;17749;51.962;8.560;2023-08-12T12:26:47;99911.88;;;23.82;100.00
31096;BME280;17749;51.962;8.560;2023-08-12T12:29:14;99916.38;;;23.63;100.00
31096;BME280;17749;51.962;8.560;2023-08-12T12:31:41;99915.56;;;23.53;100.00
31096;BME280;17749;51.962;8.560;2023-08-12T12:34:08;99917.75;;;23.40;100.00
31096;BME280;17749;51.962;8.560;2023-08-12T12:36:39;99921.91;;;23.34;100.00
31096;BME280;17749;51.962;8.560;2023-08-12T12:39:07;99915.78;;;23.23;100.00
31096;BME280;17749;51.962;8.560;2023-08-12T12:41:34;99912.06;;;23.24;100.00
31096;BME280;17749;51.962;8.560;2023-08-12T12:44:02;99915.78;;;23.23;100.00
31096;BME280;17749;51.962;8.560;2023-08-12T12:46:29;99921.72;;;23.08;100.00
31096;BME280;17749;51.962;8.560;2023-08-12T12:48:56;99925.53;;;23.15;100.00
31096;BME280;17749;51.962;8.560;2023-08-12T12:51:23;99925.81;;;23.12;100.00
31096;BME280;17749;51.962;8.560;2023-08-12T12:53:50;99927.56;;;23.13;100.00
31096;BME280;17749;51.962;8.560;2023-08-12T12:56:18;99923.00;;;23.04;100.00
31096;BME280;17749;51.962;8.560;2023-08-12T12:58:45;99922.84;;;22.96;100.00
31096;BME280;17749;51.962;8.560;2023-08-12T13:01:12;99932.72;;;22.97;100.00
31096;BME280;17749;51.962;8.560;2023-08-12T13:03:39;99933.00;;;23.04;100.00
31096;BME280;17749;51.962;8.560;2023-08-12T13:06:06;99932.09;;;23.13;100.00
31096;BME280;17749;51.962;8.560;2023-08-12T13:08:33;99922.97;;;23.14;100.00
31096;BME280;17749;51.962;8.560;2023-08-12T13:11:00;99920.38;;;23.22;100.00
31096;BME280;17749;51.962;8.560;2023-08-12T13:13:27;99923.50;;;23.27;100.00
31096;BME280;17749;51.962;8.560;2023-08-12T13:15:54;99927.78;;;23.30;100.00
31096;BME280;17749;51.962;8.560;2023-08-12T13:18:21;99928.97;;;23.17;100.00
31096;BME280;17749;51.962;8.560;2023-08-12T13:20:48;99932.69;;;23.16;100.00
31096;BME280;17749;51.962;8.560;2023-08-12T13:23:15;99929.84;;;23.08;100.00
31096;BME280;17749;51.962;8.560;2023-08-12T13:25:42;99938.72;;;23.01;100.00
31096;BME280;17749;51.962;8.560;2023-08-12T13:28:09;99946.44;;;22.66;100.00
31096;BME280;17749;51.962;8.560;2023-08-12T13:30:36;99948.56;;;22.53;100.00
31096;BME280;17749;51.962;8.560;2023-08-12T13:33:03;99955.56;;;22.46;100.00
31096;BME280;17749;51.962;8.560;2023-08-12T13:35:31;99960.94;;;22.26;100.00
31096;BME280;17749;51.962;8.560;2023-08-12T13:37:58;99959.47;;;22.13;100.00
31096;BME280;17749;51.962;8.560;2023-08-12T13:40:25;99964.94;;;22.32;100.00
31096;BME280;17749;51.962;8.560;2023-08-12T13:42:53;99971.84;;;22.56;100.00
31096;BME280;17749;51.962;8.560;2023-08-12T13:45:20;99967.84;;;22.89;100.00
31096;BME280;17749;51.962;8.560;2023-08-12T13:47:47;99970.72;;;23.07;100.00
31096;BME280;17749;51.962;8.560;2023-08-12T13:50:14;99964.81;;;23.31;100.00
31096;BME280;17749;51.962;8.560;2023-08-12T13:52:41;99960.94;;;23.33;100.00
31096;BME280;17749;51.962;8.560;2023-08-12T13:55:08;99959.78;;;23.36;100.00
31096;BME280;17749;51.962;8.560;2023-08-12T13:57:36;99975.53;;;23.32;100.00
31096;BME280;17749;51.962;8.560;2023-08-12T14:00:03;99978.28;;;23.23;100.00
31096;BME280;17749;51.962;8.560;2023-08-12T14:02:42;99982.00;;;23.02;100.00
31096;BME280;17749;51.962;8.560;2023-08-12T14:05:10;99989.44;;;22.90;100.00
31096;BME280;17749;51.962;8.560;2023-08-12T14:07:37;99977.88;;;22.98;100.00
31096;BME280;17749;51.962;8.560;2023-08-12T14:10:05;99976.16;;;23.16;100.00
31096;BME280;17749;51.962;8.560;2023-08-12T14:12:32;99965.25;;;23.26;100.00
31096;BME280;17749;51.962;8.560;2023-08-12T14:15:00;99960.06;;;23.43;100.00
31096;BME280;17749;51.962;8.560;2023-08-12T14:17:27;99954.88;;;23.49;100.00
31096;BME280;17749;51.962;8.560;2023-08-12T14:19:54;99956.03;;;23.47;100.00
31096;BME280;17749;51.962;8.560;2023-08-12T14:22:21;99966.25;;;23.35;100.00
31096;BME280;17749;51.962;8.560;2023-08-12T14:24:48;99963.53;;;23.25;100.00
31096;BME280;17749;51.962;8.560;2023-08-12T14:27:15;99958.53;;;23.21;100.00
31096;BME280;17749;51.962;8.560;2023-08-12T14:29:45;99957.25;;;23.25;100.00
31096;BME280;17749;51.962;8.560;2023-08-12T14:32:12;99958.97;;;23.26;100.00
31096;BME280;17749;51.962;8.560;2023-08-12T14:34:39;99966.69;;;23.21;100.00
31096;BME280;17749;51.962;8.560;2023-08-12T14:37:06;99957.00;;;23.08;100.00
31096;BME280;17749;51.962;8.560;2023-08-12T14:39:34;99940.00;;;23.06;100.00
31096;BME280;17749;51.962;8.560;2023-08-12T14:42:01;99945.53;;;22.95;100.00
31096;BME280;17749;51.962;8.560;2023-08-12T14:44:30;99946.72;;;22.73;100.00
31096;BME280;17749;51.962;8.560;2023-08-12T14:47:02;99964.72;;;22.54;100.00
31096;BME280;17749;51.962;8.560;2023-08-12T14:49:30;99968.41;;;22.44;100.00
31096;BME280;17749;51.962;8.560;2023-08-12T14:51:57;99974.97;;;22.41;100.00
31096;BME280;17749;51.962;8.560;2023-08-12T14:54:24;99988.09;;;22.36;100.00
31096;BME280;17749;51.962;8.560;2023-08-12T14:56:51;99972.09;;;22.23;100.00
31096;BME280;17749;51.962;8.560;2023-08-12T14:59:18;99968.53;;;22.23;100.00
31096;BME280;17749;51.962;8.560;2023-08-12T15:01:45;99958.63;;;22.12;100.00
31096;BME280;17749;51.962;8.560;2023-08-12T15:04:12;99963.16;;;22.02;100.00
31096;BME280;17749;51.962;8.560;2023-08-12T15:06:39;99970.28;;;22.03;100.00
31096;BME280;17749;51.962;8.560;2023-08-12T15:09:06;99964.59;;;22.06;100.00
31096;BME280;17749;51.962;8.560;2023-08-12T15:11:33;99967.19;;;22.17;100.00
31096;BME280;17749;51.962;8.560;2023-08-12T15:14:00;99971.81;;;22.26;100.00
31096;BME280;17749;51.962;8.560;2023-08-12T15:16:27;99966.41;;;22.46;100.00
31096;BME280;17749;51.962;8.560;2023-08-12T15:18:54;99959.28;;;22.64;100.00
31096;BME280;17749;51.962;8.560;2023-08-12T15:21:21;99964.13;;;22.61;100.00
31096;BME280;17749;51.962;8.560;2023-08-12T15:23:47;99967.44;;;22.64;100.00
31096;BME280;17749;51.962;8.560;2023-08-12T15:26:14;99977.88;;;22.69;100.00
31096;BME280;17749;51.962;8.560;2023-08-12T15:28:41;99986.13;;;22.58;100.00
31096;BME280;17749;51.962;8.560;2023-08-12T15:31:10;99988.41;;;22.43;100.00
31096;BME280;17749;51.962;8.560;2023-08-12T15:33:37;99991.28;;;22.51;100.00
31096;BME280;17749;51.962;8.560;2023-08-12T15:36:04;99997.25;;;22.45;100.00
31096;BME280;17749;51.962;8.560;2023-08-12T15:38:31;100001.78;;;22.35;100.00
31096;BME280;17749;51.962;8.560;2023-08-12T15:40:58;100003.81;;;22.33;100.00
31096;BME280;17749;51.962;8.560;2023-08-12T15:43:25;100004.66;;;22.33;100.00
31096;BME280;17749;51.962;8.560;2023-08-12T15:45:52;100004.31;;;22.17;100.00
31096;BME280;17749;51.962;8.560;2023-08-12T15:48:19;100005.97;;;22.08;100.00
31096;BME280;17749;51.962;8.560;2023-08-12T15:50:46;100009.13;;;22.03;100.00
31096;BME280;17749;51.962;8.560;2023-08-12T15:53:14;99997.69;;;22.00;100.00
31096;BME280;17749;51.962;8.560;2023-08-12T15:55:41;99997.97;;;21.97;100.00
31096;BME280;17749;51.962;8.560;2023-08-12T15:58:08;100017.03;;;21.85;100.00
31096;BME280;17749;51.962;8.560;2023-08-12T16:00:35;100015.69;;;21.70;100.00
31096;BME280;17749;51.962;8.560;2023-08-12T16:03:02;100018.88;;;21.54;100.00
31096;BME280;17749;51.962;8.560;2023-08-12T16:05:29;100037.03;;;21.42;100.00
31096;BME280;17749;51.962;8.560;2023-08-12T16:07:56;100038.88;;;21.21;100.00
31096;BME280;17749;51.962;8.560;2023-08-12T16:10:23;100035.78;;;21.26;100.00
31096;BME280;17749;51.962;8.560;2023-08-12T16:12:50;100047.66;;;21.13;100.00
31096;BME280;17749;51.962;8.560;2023-08-12T16:15:17;100044.63;;;21.07;100.00
31096;BME280;17749;51.962;8.560;2023-08-12T16:17:44;100033.53;;;21.10;100.00
31096;BME280;17749;51.962;8.560;2023-08-12T16:20:11;100041.66;;;21.10;100.00
31096;BME280;17749;51.962;8.560;2023-08-12T16:22:39;100040.66;;;21.11;100.00
31096;BME280;17749;51.962;8.560;2023-08-12T16:25:06;100030.81;;;21.10;100.00
31096;BME280;17749;51.962;8.560;2023-08-12T16:27:33;100038.03;;;21.20;100.00
31096;BME280;17749;51.962;8.560;2023-08-12T16:30:00;100030.81;;;21.31;100.00
31096;BME280;17749;51.962;8.560;2023-08-12T16:32:27;100037.03;;;21.42;100.00
31096;BME280;17749;51.962;8.560;2023-08-12T16:34:54;100040.75;;;21.41;100.00
31096;BME280;17749;51.962;8.560;2023-08-12T16:37:23;100040.50;;;21.44;100.00
31096;BME280;17749;51.962;8.560;2023-08-12T16:39:50;100038.25;;;21.50;100.00
31096;BME280;17749;51.962;8.560;2023-08-12T16:42:17;100052.25;;;21.55;100.00
31096;BME280;17749;51.962;8.560;2023-08-12T16:44:47;100049.94;;;21.50;100.00
31096;BME280;17749;51.962;8.560;2023-08-12T16:47:14;100042.19;;;21.45;100.00
31096;BME280;17749;51.962;8.560;2023-08-12T16:49:41;100043.47;;;21.41;100.00
31096;BME280;17749;51.962;8.560;2023-08-12T16:52:08;100040.06;;;21.28;100.00
31096;BME280;17749;51.962;8.560;2023-08-12T16:54:35;100047.09;;;21.19;100.00
31096;BME280;17749;51.962;8.560;2023-08-12T16:57:02;100044.81;;;21.15;100.00
31096;BME280;17749;51.962;8.560;2023-08-12T16:59:29;100052.53;;;21.19;100.00
31096;BME280;17749;51.962;8.560;2023-08-12T17:01:56;100051.88;;;21.27;100.00
31096;BME280;17749;51.962;8.560;2023-08-12T17:04:23;100044.38;;;21.31;100.00
31096;BME280;17749;51.962;8.560;2023-08-12T17:06:50;100054.19;;;21.32;100.00
31096;BME280;17749;51.962;8.560;2023-08-12T17:09:18;100043.91;;;21.26;100.00
31096;BME280;17749;51.962;8.560;2023-08-12T17:11:45;100040.34;;;21.25;100.00
31096;BME280;17749;51.962;8.560;2023-08-12T17:14:12;100038.75;;;21.22;100.00
31096;BME280;17749;51.962;8.560;2023-08-12T17:16:39;100036.91;;;21.23;100.00
31096;BME280;17749;51.962;8.560;2023-08-12T17:19:06;100046.00;;;21.22;100.00
31096;BME280;17749;51.962;8.560;2023-08-12T17:21:33;100055.66;;;21.15;100.00
31096;BME280;17749;51.962;8.560;2023-08-12T17:24:00;100047.06;;;21.10;100.00
31096;BME280;17749;51.962;8.560;2023-08-12T17:26:27;100054.72;;;21.05;100.00
31096;BME280;17749;51.962;8.560;2023-08-12T17:28:54;100068.63;;;21.00;100.00
31096;BME280;17749;51.962;8.560;2023-08-12T17:31:23;100070.97;;;21.05;100.00
31096;BME280;17749;51.962;8.560;2023-08-12T17:33:50;100074.41;;;21.07;100.00
31096;BME280;17749;51.962;8.560;2023-08-12T17:36:17;100078.34;;;21.02;100.00
31096;BME280;17749;51.962;8.560;2023-08-12T17:38:44;100072.06;;;21.02;100.00
31096;BME280;17749;51.962;8.560;2023-08-12T17:41:11;100073.78;;;21.03;100.00
31096;BME280;17749;51.962;8.560;2023-08-12T17:43:38;100072.34;;;20.99;100.00
31096;BME280;17749;51.962;8.560;2023-08-12T17:46:06;100078.88;;;20.96;100.00
31096;BME280;17749;51.962;8.560;2023-08-12T17:48:34;100082.81;;;20.92;100.00
31096;BME280;17749;51.962;8.560;2023-08-12T17:51:01;100076.19;;;20.85;100.00
31096;BME280;17749;51.962;8.560;2023-08-12T17:53:28;100087.53;;;20.79;100.00
31096;BME280;17749;51.962;8.560;2023-08-12T17:55:56;100078.81;;;20.75;100.00
31096;BME280;17749;51.962;8.560;2023-08-12T17:58:23;100079.94;;;20.73;100.00
31096;BME280;17749;51.962;8.560;2023-08-12T18:00:50;100084.59;;;20.71;100.00
31096;BME280;17749;51.962;8.560;2023-08-12T18:03:17;100092.22;;;20.66;100.00